createdAt,value
2022-08-27T00:00:32.031Z,99824.53
2022-08-27T00:02:59.264Z,99823.69
2022-08-27T00:05:25.872Z,99821.16
2022-08-27T00:07:52.445Z,99824.00
2022-08-27T00:10:23.069Z,99828.56
2022-08-27T00:12:49.655Z,99821.53
2022-08-27T00:15:17.854Z,99825.19
2022-08-27T00:17:45.932Z,99828.03
2022-08-27T00:20:15.806Z,99823.84
2022-08-27T00:22:42.401Z,99820.31
2022-08-27T00:25:10.359Z,99813.28
2022-08-27T00:27:37.836Z,99811.59
2022-08-27T00:30:07.039Z,99817.97
2022-08-27T00:32:33.587Z,99814.44
2022-08-27T00:35:00.146Z,99817.13
2022-08-27T00:37:26.754Z,99825.34
2022-08-27T00:39:53.730Z,99812.75
2022-08-27T00:42:20.321Z,99809.25
2022-08-27T00:44:47.179Z,99812.09
2022-08-27T00:47:18.487Z,99813.28
2022-08-27T00:49:54.644Z,99818.94
2022-08-27T00:52:33.428Z,99820.78
2022-08-27T00:55:10.173Z,99820.78
2022-08-27T00:57:39.159Z,99823.31
2022-08-27T01:00:08.973Z,99829.69
2022-08-27T01:02:35.771Z,99821.63
2022-08-27T01:05:09.032Z,99824.63
2022-08-27T01:07:39.319Z,99828.97
2022-08-27T01:10:20.034Z,99825.47
2022-08-27T01:12:53.344Z,99827.16
2022-08-27T01:15:22.731Z,99827.31
2022-08-27T01:17:50.118Z,99823.81
2022-08-27T01:20:21.036Z,99830.16
2022-08-27T01:23:04.494Z,99829.63
2022-08-27T01:25:31.542Z,99827.47
2022-08-27T01:28:00.729Z,99829.47
2022-08-27T01:30:27.465Z,99828.78
2022-08-27T01:32:54.822Z,99825.44
2022-08-27T01:35:23.350Z,99822.91
2022-08-27T01:37:53.717Z,99818.88
2022-08-27T01:40:24.544Z,99825.25
2022-08-27T01:42:55.512Z,99822.88
2022-08-27T01:45:32.749Z,99827.75
2022-08-27T01:48:00.385Z,99819.53
2022-08-27T01:50:31.947Z,99823.38
2022-08-27T01:53:04.302Z,99815.50
2022-08-27T01:55:30.951Z,99820.88
2022-08-27T01:57:57.520Z,99816.47
2022-08-27T02:00:34.932Z,99819.50
2022-08-27T02:03:01.566Z,99823.84
2022-08-27T02:05:29.053Z,99820.16
2022-08-27T02:07:56.257Z,99820.16
2022-08-27T02:10:27.546Z,99822.84
2022-08-27T02:12:54.329Z,99823.53
2022-08-27T02:15:21.838Z,99821.84
2022-08-27T02:17:48.546Z,99818.19
2022-08-27T02:20:15.809Z,99811.13
2022-08-27T02:22:42.608Z,99810.16
2022-08-27T02:25:12.246Z,99811.97
2022-08-27T02:27:38.987Z,99812.13
2022-08-27T02:30:06.233Z,99814.81
2022-08-27T02:32:33.027Z,99814.16
2022-08-27T02:35:00.501Z,99815.97
2022-08-27T02:37:28.289Z,99815.47
2022-08-27T02:39:54.905Z,99819.16
2022-08-27T02:42:21.689Z,99820.97
2022-08-27T02:44:48.589Z,99816.78
2022-08-27T02:47:16.815Z,99823.97
2022-08-27T02:49:44.471Z,99816.09
2022-08-27T02:52:11.145Z,99819.94
2022-08-27T02:54:37.679Z,99818.41
2022-08-27T02:57:05.558Z,99816.75
2022-08-27T02:59:32.090Z,99824.09
2022-08-27T03:01:58.722Z,99826.09
2022-08-27T03:04:25.421Z,99823.56
2022-08-27T03:06:52.009Z,99822.75
2022-08-27T03:09:18.548Z,99821.91
2022-08-27T03:11:45.147Z,99821.03
2022-08-27T03:14:12.818Z,99822.03
2022-08-27T03:16:40.113Z,99815.69
2022-08-27T03:19:07.465Z,99816.81
2022-08-27T03:21:35.474Z,99818.69
2022-08-27T03:24:11.264Z,99813.47
2022-08-27T03:26:39.395Z,99819.00
2022-08-27T03:29:07.829Z,99817.31
2022-08-27T03:31:34.406Z,99812.94
2022-08-27T03:34:04.423Z,99813.94
2022-08-27T03:36:31.695Z,99815.59
2022-08-27T03:38:58.550Z,99819.13
2022-08-27T03:41:43.831Z,99817.47
2022-08-27T03:44:16.741Z,99811.97
2022-08-27T03:46:48.759Z,99810.09
2022-08-27T03:49:15.374Z,99803.91
2022-08-27T03:51:47.370Z,99812.09
2022-08-27T03:54:13.936Z,99813.94
2022-08-27T03:56:41.628Z,99806.06
2022-08-27T03:59:08.344Z,99811.56
2022-08-27T04:01:35.104Z,99813.56
2022-08-27T04:04:01.901Z,99814.75
2022-08-27T04:06:28.518Z,99807.84
2022-08-27T04:08:55.107Z,99809.03
2022-08-27T04:11:22.162Z,99812.00
2022-08-27T04:13:48.849Z,99819.19
2022-08-27T04:16:15.577Z,99814.84
2022-08-27T04:18:42.281Z,99820.69
2022-08-27T04:21:11.407Z,99822.66
2022-08-27T04:23:39.823Z,99825.47
2022-08-27T04:26:08.357Z,99825.63
2022-08-27T04:28:38.655Z,99832.84
2022-08-27T04:31:06.325Z,99833.81
2022-08-27T04:33:35.993Z,99833.16
2022-08-27T04:36:06.099Z,99838.66
2022-08-27T04:38:33.609Z,99842.19
2022-08-27T04:41:19.970Z,99845.16
2022-08-27T04:43:58.024Z,99846.31
2022-08-27T04:46:30.551Z,99846.31
2022-08-27T04:48:59.479Z,99847.19
2022-08-27T04:51:26.933Z,99844.50
2022-08-27T04:53:53.860Z,99847.31
2022-08-27T04:56:23.797Z,99847.47
2022-08-27T04:58:53.514Z,99844.09
2022-08-27T05:01:26.303Z,99846.09
2022-08-27T05:03:54.414Z,99846.09
2022-08-27T05:06:22.020Z,99846.25
2022-08-27T05:08:50.412Z,99855.28
2022-08-27T05:11:19.165Z,99851.09
2022-08-27T05:13:46.374Z,99853.75
2022-08-27T05:16:16.181Z,99851.22
2022-08-27T05:18:48.178Z,99847.72
2022-08-27T05:21:21.087Z,99850.69
2022-08-27T05:23:48.342Z,99862.94
2022-08-27T05:26:15.913Z,99852.53
2022-08-27T05:28:42.938Z,99848.19
2022-08-27T05:31:11.766Z,99853.53
2022-08-27T05:33:39.960Z,99845.66
2022-08-27T05:36:07.750Z,99854.50
2022-08-27T05:38:35.013Z,99852.84
2022-08-27T05:41:11.594Z,99855.81
2022-08-27T05:43:40.235Z,99865.41
2022-08-27T05:46:10.032Z,99858.34
2022-08-27T05:48:37.560Z,99861.16
2022-08-27T05:51:08.429Z,99858.50
2022-08-27T05:53:35.912Z,99862.00
2022-08-27T05:56:02.654Z,99858.34
2022-08-27T05:58:48.630Z,99857.50
2022-08-27T06:01:20.785Z,99856.66
2022-08-27T06:03:47.428Z,99861.00
2022-08-27T06:06:14.513Z,99857.50
2022-08-27T06:08:41.139Z,99857.50
2022-08-27T06:11:08.112Z,99856.66
2022-08-27T06:13:35.983Z,99862.00
2022-08-27T06:16:09.286Z,99858.66
2022-08-27T06:18:41.174Z,99860.34
2022-08-27T06:21:08.153Z,99859.34
2022-08-27T06:23:35.112Z,99857.66
2022-08-27T06:26:05.381Z,99856.00
2022-08-27T06:28:34.000Z,99858.66
2022-08-27T06:31:17.720Z,99858.97
2022-08-27T06:33:46.249Z,99855.00
2022-08-27T06:36:16.294Z,99853.63
2022-08-27T06:38:43.282Z,99856.97
2022-08-27T06:41:23.272Z,99851.59
2022-08-27T06:43:51.076Z,99856.00
2022-08-27T06:46:20.351Z,99853.31
2022-08-27T06:48:49.938Z,99856.66
2022-08-27T06:51:24.480Z,99860.19
2022-08-27T06:53:52.393Z,99863.38
2022-08-27T06:56:20.032Z,99868.44
2022-08-27T06:58:47.161Z,99859.25
2022-08-27T07:01:16.102Z,99860.78
2022-08-27T07:03:43.726Z,99872.88
2022-08-27T07:06:13.334Z,99865.50
2022-08-27T07:08:41.169Z,99864.22
2022-08-27T07:11:09.850Z,99871.09
2022-08-27T07:13:37.310Z,99881.50
2022-08-27T07:16:06.395Z,99881.34
2022-08-27T07:18:34.518Z,99886.41
2022-08-27T07:21:01.153Z,99882.56
2022-08-27T07:23:28.597Z,99889.44
2022-08-27T07:25:55.145Z,99896.31
2022-08-27T07:28:21.708Z,99895.03
2022-08-27T07:30:48.361Z,99895.69
2022-08-27T07:33:15.116Z,99900.75
2022-08-27T07:35:41.861Z,99902.41
2022-08-27T07:38:14.262Z,99905.78
2022-08-27T07:40:43.215Z,99909.00
2022-08-27T07:43:45.819Z,99911.38
2022-08-27T07:46:12.478Z,99906.53
2022-08-27T07:48:39.116Z,99905.38
2022-08-27T07:51:13.072Z,99904.09
2022-08-27T07:53:39.811Z,99903.78
2022-08-27T07:56:08.554Z,99908.00
2022-08-27T07:58:35.564Z,99909.34
2022-08-27T08:01:02.851Z,99912.56
2022-08-27T08:03:31.078Z,99909.41
2022-08-27T08:06:02.382Z,99916.81
2022-08-27T08:08:36.092Z,99909.97
2022-08-27T08:11:06.449Z,99915.53
2022-08-27T08:13:36.275Z,99922.97
2022-08-27T08:16:04.942Z,99925.16
2022-08-27T08:18:31.559Z,99924.53
2022-08-27T08:21:03.388Z,99918.00
2022-08-27T08:23:29.998Z,99924.38
2022-08-27T08:25:57.756Z,99916.53
2022-08-27T08:28:24.777Z,99916.06
2022-08-27T08:30:52.638Z,99924.34
2022-08-27T08:33:19.308Z,99924.53
2022-08-27T08:35:45.892Z,99925.41
2022-08-27T08:38:12.475Z,99925.44
2022-08-27T08:40:42.645Z,99931.63
2022-08-27T08:43:41.690Z,99925.78
2022-08-27T08:46:17.342Z,99926.16
2022-08-27T08:48:49.446Z,99919.28
2022-08-27T08:51:40.697Z,99923.31
2022-08-27T08:54:14.097Z,99920.13
2022-08-27T08:56:54.939Z,99926.19
2022-08-27T08:59:28.471Z,99924.00
2022-08-27T09:01:55.135Z,99920.13
2022-08-27T09:04:25.740Z,99922.66
2022-08-27T09:06:52.410Z,99924.16
2022-08-27T09:09:23.981Z,99919.63
2022-08-27T09:11:56.154Z,99924.53
2022-08-27T09:14:35.262Z,99925.38
2022-08-27T09:17:07.171Z,99920.16
2022-08-27T09:19:38.008Z,99915.44
2022-08-27T09:22:32.682Z,99930.91
2022-08-27T09:25:20.363Z,99925.88
2022-08-27T09:27:51.814Z,99925.19
2022-08-27T09:30:30.511Z,99934.09
2022-08-27T09:33:01.729Z,99928.22
2022-08-27T09:35:39.119Z,99929.91
2022-08-27T09:38:05.749Z,99936.44
2022-08-27T09:40:40.107Z,99934.59
2022-08-27T09:43:21.834Z,99938.78
2022-08-27T09:45:51.688Z,99933.91
2022-08-27T09:48:21.447Z,99934.56
2022-08-27T09:50:55.091Z,99929.88
2022-08-27T09:53:27.285Z,99922.16
2022-08-27T09:56:03.385Z,99921.81
2022-08-27T09:58:47.429Z,99914.56
2022-08-27T10:01:26.774Z,99912.00
2022-08-27T10:04:06.548Z,99922.94
2022-08-27T10:06:33.388Z,99925.63
2022-08-27T10:09:07.332Z,99928.78
2022-08-27T10:11:41.015Z,99929.31
2022-08-27T10:14:21.585Z,99921.88
2022-08-27T10:17:00.335Z,99922.88
2022-08-27T10:19:36.056Z,99926.41
2022-08-27T10:22:17.983Z,99929.41
2022-08-27T10:25:06.733Z,99934.78
2022-08-27T10:28:02.437Z,99929.72
2022-08-27T10:30:38.037Z,99934.41
2022-08-27T10:33:04.799Z,99921.94
2022-08-27T10:36:06.068Z,99928.00
2022-08-27T10:38:50.196Z,99920.22
2022-08-27T10:41:20.018Z,99925.34
2022-08-27T10:44:39.464Z,99922.66
2022-08-27T10:47:49.442Z,99922.38
2022-08-27T10:51:12.588Z,99930.53
2022-08-27T10:54:22.774Z,99931.50
2022-08-27T10:57:26.305Z,99928.06
2022-08-27T11:00:12.170Z,99926.75
2022-08-27T11:02:44.652Z,99937.53
2022-08-27T11:05:45.112Z,99929.66
2022-08-27T11:08:17.229Z,99932.03
2022-08-27T11:10:49.368Z,99925.44
2022-08-27T11:13:25.030Z,99930.41
2022-08-27T11:15:54.760Z,99929.50
2022-08-27T11:18:40.277Z,99925.81
2022-08-27T11:21:07.904Z,99922.91
2022-08-27T11:23:45.501Z,99925.41
2022-08-27T11:26:12.819Z,99926.41
2022-08-27T11:28:48.018Z,99926.19
2022-08-27T11:31:49.197Z,99923.38
2022-08-27T11:34:42.518Z,99912.78
2022-08-27T11:37:37.960Z,99915.72
2022-08-27T11:40:07.874Z,99914.84
2022-08-27T11:42:48.441Z,99917.22
2022-08-27T11:45:24.586Z,99917.53
2022-08-27T11:47:59.698Z,99915.31
2022-08-27T11:50:28.826Z,99915.38
2022-08-27T11:53:02.198Z,99909.81
2022-08-27T11:55:32.648Z,99920.50
2022-08-27T11:58:07.843Z,99912.03
2022-08-27T12:00:38.472Z,99919.56
2022-08-27T12:03:22.538Z,99914.59
2022-08-27T12:06:08.064Z,99919.19
2022-08-27T12:08:36.106Z,99919.97
2022-08-27T12:11:40.206Z,99922.47
2022-08-27T12:14:40.030Z,99917.84
2022-08-27T12:17:35.633Z,99919.41
2022-08-27T12:20:40.626Z,99921.75
2022-08-27T12:23:44.025Z,99920.00
2022-08-27T12:26:16.979Z,99924.50
2022-08-27T12:28:43.693Z,99921.31
2022-08-27T12:31:10.799Z,99926.16
2022-08-27T12:33:45.484Z,99917.84
2022-08-27T12:36:27.995Z,99923.97
2022-08-27T12:38:58.432Z,99920.72
2022-08-27T12:41:44.679Z,99919.03
2022-08-27T12:44:26.923Z,99918.34
2022-08-27T12:47:05.375Z,99923.09
2022-08-27T12:49:41.590Z,99919.25
2022-08-27T12:52:36.511Z,99922.63
2022-08-27T12:55:25.379Z,99915.88
2022-08-27T12:57:57.187Z,99916.97
2022-08-27T13:00:26.502Z,99911.06
2022-08-27T13:02:59.167Z,99912.16
2022-08-27T13:05:41.192Z,99909.09
2022-08-27T13:08:29.918Z,99907.13
2022-08-27T13:11:07.037Z,99908.19
2022-08-27T13:13:33.605Z,99897.31
2022-08-27T13:16:04.419Z,99909.31
2022-08-27T13:18:31.262Z,99908.03
2022-08-27T13:21:13.352Z,99909.81
2022-08-27T13:23:45.793Z,99911.66
2022-08-27T13:26:12.713Z,99913.53
2022-08-27T13:28:43.041Z,99909.53
2022-08-27T13:31:11.256Z,99915.13
2022-08-27T13:33:40.448Z,99908.59
2022-08-27T13:36:09.330Z,99917.06
2022-08-27T13:38:49.783Z,99912.44
2022-08-27T13:41:36.375Z,99910.09
2022-08-27T13:44:12.609Z,99905.75
2022-08-27T13:46:49.786Z,99910.69
2022-08-27T13:49:22.003Z,99908.81
2022-08-27T13:51:49.751Z,99905.28
2022-08-27T13:54:18.851Z,99900.41
2022-08-27T13:56:49.101Z,99907.22
2022-08-27T13:59:19.364Z,99906.94
2022-08-27T14:01:55.619Z,99902.22
2022-08-27T14:04:26.740Z,99910.66
2022-08-27T14:06:54.601Z,99914.06
2022-08-27T14:09:27.210Z,99904.41
2022-08-27T14:12:02.005Z,99900.59
2022-08-27T14:14:30.635Z,99903.66
2022-08-27T14:16:59.954Z,99897.78
2022-08-27T14:19:33.223Z,99900.38
2022-08-27T14:22:03.408Z,99902.44
2022-08-27T14:24:30.014Z,99900.25
2022-08-27T14:27:05.650Z,99900.81
2022-08-27T14:29:32.251Z,99898.94
2022-08-27T14:31:58.803Z,99900.81
2022-08-27T14:34:25.362Z,99898.13
2022-08-27T14:36:55.040Z,99903.50
2022-08-27T14:39:26.559Z,99906.19
2022-08-27T14:41:53.972Z,99910.56
2022-08-27T14:44:21.862Z,99909.72
2022-08-27T14:46:49.080Z,99912.22
2022-08-27T14:49:25.930Z,99907.88
2022-08-27T14:51:52.702Z,99908.50
2022-08-27T14:54:19.277Z,99911.19
2022-08-27T14:56:46.287Z,99911.19
2022-08-27T14:59:12.816Z,99905.00
2022-08-27T15:01:39.537Z,99910.19
2022-08-27T15:04:06.896Z,99914.75
2022-08-27T15:06:33.670Z,99918.97
2022-08-27T15:09:01.690Z,99917.94
2022-08-27T15:11:31.256Z,99917.94
2022-08-27T15:14:00.341Z,99915.06
2022-08-27T15:16:35.949Z,99917.25
2022-08-27T15:19:03.104Z,99917.25
2022-08-27T15:21:31.124Z,99920.50
2022-08-27T15:24:13.063Z,99928.47
2022-08-27T15:26:39.676Z,99921.59
2022-08-27T15:29:06.867Z,99922.16
2022-08-27T15:31:33.970Z,99917.28
2022-08-27T15:34:00.805Z,99922.84
2022-08-27T15:36:27.442Z,99920.34
2022-08-27T15:38:55.198Z,99917.84
2022-08-27T15:41:25.183Z,99918.84
2022-08-27T15:43:55.296Z,99917.84
2022-08-27T15:46:22.907Z,99919.50
2022-08-27T15:48:49.523Z,99916.81
2022-08-27T15:51:17.679Z,99920.53
2022-08-27T15:53:44.416Z,99919.88
2022-08-27T15:56:11.032Z,99919.22
2022-08-27T15:58:45.270Z,99924.97
2022-08-27T16:01:15.035Z,99923.63
2022-08-27T16:03:43.857Z,99922.97
2022-08-27T16:06:10.468Z,99921.47
2022-08-27T16:08:41.707Z,99925.53
2022-08-27T16:11:09.369Z,99917.66
2022-08-27T16:13:36.753Z,99910.97
2022-08-27T16:16:03.975Z,99920.03
2022-08-27T16:18:33.166Z,99922.91
2022-08-27T16:21:02.108Z,99911.31
2022-08-27T16:23:30.606Z,99912.13
2022-08-27T16:25:57.702Z,99920.03
2022-08-27T16:28:25.029Z,99917.16
2022-08-27T16:30:54.576Z,99923.41
2022-08-27T16:33:22.942Z,99918.66
2022-08-27T16:35:50.381Z,99917.66
2022-08-27T16:38:17.184Z,99923.88
2022-08-27T16:40:55.140Z,99917.16
2022-08-27T16:43:24.653Z,99917.84
2022-08-27T16:45:53.375Z,99924.22
2022-08-27T16:48:39.446Z,99917.50
2022-08-27T16:51:09.098Z,99917.91
2022-08-27T16:53:39.854Z,99917.78
2022-08-27T16:56:06.902Z,99912.72
2022-08-27T16:58:33.770Z,99922.16
2022-08-27T17:01:07.291Z,99915.78
2022-08-27T17:04:07.013Z,99914.47
2022-08-27T17:06:29.222Z,99917.16
2022-08-27T17:08:56.259Z,99923.72
2022-08-27T17:11:28.706Z,99921.41
2022-08-27T17:13:58.684Z,99928.81
2022-08-27T17:16:29.630Z,99928.31
2022-08-27T17:18:58.414Z,99927.66
2022-08-27T17:21:29.720Z,99925.34
2022-08-27T17:23:59.407Z,99922.13
2022-08-27T17:26:26.283Z,99925.19
2022-08-27T17:28:53.636Z,99932.94
2022-08-27T17:31:28.436Z,99928.25
2022-08-27T17:33:59.135Z,99922.03
2022-08-27T17:36:27.158Z,99926.06
2022-08-27T17:38:54.862Z,99927.44
2022-08-27T17:41:33.917Z,99933.34
2022-08-27T17:44:05.655Z,99929.00
2022-08-27T17:46:32.509Z,99929.16
2022-08-27T17:48:59.757Z,99931.16
2022-08-27T17:51:27.559Z,99931.53
2022-08-27T17:54:00.558Z,99932.84
2022-08-27T17:56:28.394Z,99934.22
2022-08-27T17:58:55.302Z,99947.97
2022-08-27T18:01:28.747Z,99944.13
2022-08-27T18:03:56.729Z,99948.00
2022-08-27T18:06:24.002Z,99957.41
2022-08-27T18:08:50.609Z,99960.59
2022-08-27T18:11:17.648Z,99961.13
2022-08-27T18:13:48.112Z,99961.78
2022-08-27T18:16:14.725Z,99959.44
2022-08-27T18:18:41.850Z,99964.31
2022-08-27T18:21:08.525Z,99962.97
2022-08-27T18:23:36.978Z,99965.16
2022-08-27T18:26:06.619Z,99972.88
2022-08-27T18:28:34.195Z,99975.91
2022-08-27T18:31:03.724Z,99978.25
2022-08-27T18:33:33.666Z,99976.06
2022-08-27T18:36:00.422Z,99983.63
2022-08-27T18:38:27.046Z,99985.94
2022-08-27T18:40:54.643Z,99990.97
2022-08-27T18:43:29.654Z,99993.31
2022-08-27T18:45:56.455Z,99988.25
2022-08-27T18:48:23.865Z,99994.97
2022-08-27T18:50:55.595Z,100001.66
2022-08-27T18:53:22.215Z,100000.00
2022-08-27T18:55:50.579Z,99999.81
2022-08-27T18:58:18.065Z,100015.22
2022-08-27T19:00:48.946Z,100010.34
2022-08-27T19:03:21.966Z,100009.00
2022-08-27T19:05:48.762Z,100011.84
2022-08-27T19:08:22.891Z,100017.88
2022-08-27T19:10:49.663Z,100014.84
2022-08-27T19:13:16.474Z,100019.84
2022-08-27T19:16:05.862Z,100020.84
2022-08-27T19:18:35.512Z,100028.53
2022-08-27T19:21:02.434Z,100028.84
2022-08-27T19:23:29.198Z,100027.47
2022-08-27T19:25:57.802Z,100034.31
2022-08-27T19:28:37.746Z,100036.31
2022-08-27T19:31:04.984Z,100040.16
2022-08-27T19:33:31.667Z,100038.59
2022-08-27T19:35:58.667Z,100038.94
2022-08-27T19:38:28.526Z,100043.75
2022-08-27T19:40:55.606Z,100044.91
2022-08-27T19:43:22.204Z,100050.63
2022-08-27T19:45:48.934Z,100055.44
2022-08-27T19:48:16.680Z,100060.44
2022-08-27T19:50:44.608Z,100052.84
2022-08-27T19:53:11.278Z,100057.84
2022-08-27T19:55:45.251Z,100055.09
2022-08-27T19:58:14.097Z,100063.75
2022-08-27T20:00:41.983Z,100061.72
2022-08-27T20:03:08.634Z,100055.94
2022-08-27T20:05:35.697Z,100063.75
2022-08-27T20:08:03.561Z,100062.53
2022-08-27T20:10:31.863Z,100061.47
2022-08-27T20:13:03.017Z,100066.72
2022-08-27T20:15:29.969Z,100057.59
2022-08-27T20:17:59.362Z,100056.56
2022-08-27T20:20:28.256Z,100068.84
2022-08-27T20:22:55.917Z,100062.41
2022-08-27T20:25:23.939Z,100073.03
2022-08-27T20:27:51.090Z,100070.09
2022-08-27T20:30:22.836Z,100074.38
2022-08-27T20:32:49.657Z,100074.97
2022-08-27T20:35:17.711Z,100072.88
2022-08-27T20:37:44.568Z,100075.31
2022-08-27T20:40:15.752Z,100080.38
2022-08-27T20:42:42.685Z,100070.97
2022-08-27T20:45:12.127Z,100075.06
2022-08-27T20:47:40.107Z,100075.47
2022-08-27T20:50:07.580Z,100077.63
2022-08-27T20:52:35.693Z,100079.03
2022-08-27T20:55:03.171Z,100076.97
2022-08-27T20:57:29.789Z,100082.72
2022-08-27T21:00:15.010Z,100079.66
2022-08-27T21:02:41.676Z,100084.00
2022-08-27T21:05:11.852Z,100081.06
2022-08-27T21:07:38.915Z,100084.19
2022-08-27T21:10:06.732Z,100083.78
2022-08-27T21:12:33.598Z,100078.84
2022-08-27T21:15:01.551Z,100079.25
2022-08-27T21:17:29.459Z,100077.03
2022-08-27T21:19:56.557Z,100077.31
2022-08-27T21:22:24.886Z,100078.53
2022-08-27T21:24:52.529Z,100074.47
2022-08-27T21:27:24.248Z,100080.25
2022-08-27T21:29:51.118Z,100083.06
2022-08-27T21:32:18.433Z,100081.66
2022-08-27T21:34:45.381Z,100085.44
2022-08-27T21:37:13.779Z,100080.38
2022-08-27T21:39:42.102Z,100083.31
2022-08-27T21:42:10.068Z,100084.44
2022-08-27T21:44:37.418Z,100082.88
2022-08-27T21:47:04.512Z,100080.50
2022-08-27T21:49:32.628Z,100093.16
2022-08-27T21:52:00.823Z,100089.94
2022-08-27T21:54:27.950Z,100089.34
2022-08-27T21:56:54.859Z,100085.97
2022-08-27T21:59:21.960Z,100087.22
2022-08-27T22:01:55.830Z,100090.31
2022-08-27T22:04:27.484Z,100083.72
2022-08-27T22:06:57.784Z,100083.97
2022-08-27T22:09:24.400Z,100087.16
2022-08-27T22:11:51.236Z,100091.25
2022-08-27T22:14:17.871Z,100092.63
2022-08-27T22:16:44.476Z,100094.16
2022-08-27T22:19:11.124Z,100095.63
2022-08-27T22:21:37.851Z,100090.72
2022-08-27T22:24:05.961Z,100098.28
2022-08-27T22:26:32.581Z,100096.84
2022-08-27T22:28:59.525Z,100100.75
2022-08-27T22:31:26.352Z,100099.34
2022-08-27T22:33:53.581Z,100092.56
2022-08-27T22:36:20.357Z,100095.38
2022-08-27T22:38:47.727Z,100093.94
2022-08-27T22:41:14.766Z,100107.53
2022-08-27T22:43:45.542Z,100102.50
2022-08-27T22:46:12.266Z,100107.09
2022-08-27T22:48:39.180Z,100109.88
2022-08-27T22:51:05.964Z,100108.06
2022-08-27T22:53:36.315Z,100107.09
2022-08-27T22:56:06.243Z,100106.09
2022-08-27T22:58:32.884Z,100102.34
2022-08-27T23:00:59.974Z,100100.41
2022-08-27T23:03:26.880Z,100111.75
2022-08-27T23:05:53.831Z,100097.34
2022-08-27T23:08:23.088Z,100093.56
2022-08-27T23:10:50.222Z,100088.94
2022-08-27T23:13:16.860Z,100099.34
2022-08-27T23:15:43.608Z,100100.03
2022-08-27T23:18:10.512Z,100097.13
2022-08-27T23:20:37.276Z,100096.13
2022-08-27T23:23:04.141Z,100098.66
2022-08-27T23:25:49.222Z,100095.00
2022-08-27T23:28:16.203Z,100094.88
2022-08-27T23:30:44.746Z,100090.41
2022-08-27T23:33:13.183Z,100089.41
2022-08-27T23:35:41.348Z,100087.59
2022-08-27T23:38:07.978Z,100099.09
2022-08-27T23:40:34.681Z,100093.91
2022-08-27T23:43:01.883Z,100094.06
2022-08-27T23:45:28.543Z,100084.47
2022-08-27T23:47:55.121Z,100092.88
2022-08-27T23:50:26.366Z,100087.13
2022-08-27T23:53:01.786Z,100089.47
2022-08-27T23:55:28.869Z,100097.00
2022-08-27T23:57:57.779Z,100098.53
